Time;durP1;ratioP1;P1;durP2;ratioP2;P2;SDS_P1;SDS_P2;PMS_P1;PMS_P2;Temp;Humidity;BMP_temperature;BMP_pressure;BME280_temperature;BME280_humidity;BME280_pressure;Samples;Min_cycle;Max_cycle;Signal;HPM_P1;HPM_P2
2022/11/21 00:00:57;;;;;;;;;2.25;2.00;;;;;;;;5112332;27;45874;-62
2022/11/21 00:03:23;;;;;;;;;1.00;1.00;;;;;;;;5118451;27;45713;-62
2022/11/21 00:05:49;;;;;;;;;1.50;1.50;;;;;;;;5118063;27;47433;-62
2022/11/21 00:08:16;;;;;;;;;1.00;0.00;;;;;;;;5118082;27;45346;-62
2022/11/21 00:10:41;;;;;;;;;2.25;2.25;;;;;;;;5118092;27;45774;-62
2022/11/21 00:13:07;;;;;;;;;2.50;1.25;;;;;;;;5118467;27;45409;-63
2022/11/21 00:15:34;;;;;;;;;3.00;2.00;;;;;;;;5117931;27;45735;-62
2022/11/21 00:18:01;;;;;;;;;1.25;1.25;;;;;;;;5104939;27;45587;-62
2022/11/21 00:20:26;;;;;;;;;5.00;2.00;;;;;;;;5097346;27;45455;-63
2022/11/21 00:22:51;;;;;;;;;2.00;2.00;;;;;;;;5097619;27;45641;-62
2022/11/21 00:25:16;;;;;;;;;5.00;4.00;;;;;;;;5096802;27;46248;-62
2022/11/21 00:27:42;;;;;;;;;2.50;2.00;;;;;;;;5097372;27;45405;-63
2022/11/21 00:30:08;;;;;;;;;1.00;1.00;;;;;;;;5097297;27;45549;-63
2022/11/21 00:32:33;;;;;;;;;2.50;1.00;;;;;;;;5097323;27;45521;-62
2022/11/21 00:34:59;;;;;;;;;2.00;1.00;;;;;;;;5100397;27;45950;-63
2022/11/21 00:37:24;;;;;;;;;2.50;2.00;;;;;;;;5096978;27;45364;-63
2022/11/21 00:39:49;;;;;;;;;2.00;1.25;;;;;;;;5097089;27;45439;-62
2022/11/21 00:42:14;;;;;;;;;3.00;1.00;;;;;;;;5097165;27;45794;-63
2022/11/21 00:44:40;;;;;;;;;6.00;3.00;;;;;;;;5097043;27;45433;-62
2022/11/21 00:47:05;;;;;;;;;3.00;1.00;;;;;;;;5097098;27;45437;-62
2022/11/21 00:49:30;;;;;;;;;6.50;2.00;;;;;;;;5100002;27;45426;-62
2022/11/21 00:51:55;;;;;;;;;3.25;2.50;;;;;;;;5107007;27;45544;-62
2022/11/21 00:54:20;;;;;;;;;5.75;2.75;;;;;;;;5098427;27;46237;-62
2022/11/21 00:56:46;;;;;;;;;3.50;2.00;;;;;;;;5096921;27;45762;-63
2022/11/21 00:59:11;;;;;;;;;1.00;1.00;;;;;;;;5097064;27;45551;-62
2022/11/21 01:01:36;;;;;;;;;2.00;1.00;;;;;;;;5096776;27;45481;-63
2022/11/21 01:04:01;;;;;;;;;2.75;1.00;;;;;;;;5096599;27;45687;-62
2022/11/21 01:06:27;;;;;;;;;1.00;1.00;;;;;;;;5096494;27;45437;-62
2022/11/21 01:08:52;;;;;;;;;3.50;1.25;;;;;;;;5096432;27;45294;-62
2022/11/21 01:11:18;;;;;;;;;1.25;1.25;;;;;;;;5113014;27;45343;-63
2022/11/21 01:13:44;;;;;;;;;0.75;0.75;;;;;;;;5116583;27;47523;-63
2022/11/21 01:16:13;;;;;;;;;1.00;1.00;;;;;;;;5117164;27;45444;-62
2022/11/21 01:18:38;;;;;;;;;3.50;1.00;;;;;;;;5116967;27;45393;-63
2022/11/21 01:21:10;;;;;;;;;4.00;1.00;;;;;;;;5117246;27;45385;-62
2022/11/21 01:23:36;;;;;;;;;1.00;1.00;;;;;;;;5116878;27;46607;-62
2022/11/21 01:26:02;;;;;;;;;1.25;0.75;;;;;;;;5116493;27;45365;-63
2022/11/21 01:28:27;;;;;;;;;0.00;0.00;;;;;;;;5109741;27;45439;-63
2022/11/21 01:30:53;;;;;;;;;0.25;0.25;;;;;;;;5111004;27;45580;-63
2022/11/21 01:33:18;;;;;;;;;3.00;0.50;;;;;;;;5116563;27;47410;-63
2022/11/21 01:35:43;;;;;;;;;1.00;1.00;;;;;;;;5116804;27;45570;-63
2022/11/21 01:38:08;;;;;;;;;3.00;0.75;;;;;;;;5116829;27;45491;-62
2022/11/21 01:40:37;;;;;;;;;0.75;0.00;;;;;;;;5117118;27;45397;-63
2022/11/21 01:43:08;;;;;;;;;2.00;1.00;;;;;;;;5116620;27;45664;-63
2022/11/21 01:45:54;;;;;;;;;3.00;1.75;;;;;;;;5110860;27;45346;-62
2022/11/21 01:48:21;;;;;;;;;3.00;1.00;;;;;;;;5095990;27;45314;-62
2022/11/21 01:50:46;;;;;;;;;1.75;1.75;;;;;;;;5096373;27;45445;-62
2022/11/21 01:53:12;;;;;;;;;2.00;1.00;;;;;;;;5095741;27;46766;-62
2022/11/21 01:55:37;;;;;;;;;1.00;1.00;;;;;;;;5095864;27;45468;-63
2022/11/21 01:58:02;;;;;;;;;1.00;1.00;;;;;;;;5095892;27;45371;-62
2022/11/21 02:00:30;;;;;;;;;2.00;1.00;;;;;;;;5095881;27;45442;-62
2022/11/21 02:02:57;;;;;;;;;1.00;1.00;;;;;;;;5101178;27;47082;-63
2022/11/21 02:05:25;;;;;;;;;3.00;1.00;;;;;;;;5116346;27;45785;-62
2022/11/21 02:07:52;;;;;;;;;6.50;1.00;;;;;;;;5116541;27;45452;-62
2022/11/21 02:10:18;;;;;;;;;1.00;1.00;;;;;;;;5116393;27;45442;-62
2022/11/21 02:12:48;;;;;;;;;2.00;1.00;;;;;;;;5116299;27;45798;-62
2022/11/21 02:15:14;;;;;;;;;0.75;0.75;;;;;;;;5116222;27;45400;-62
2022/11/21 02:17:39;;;;;;;;;0.75;0.75;;;;;;;;5116117;27;45341;-62
2022/11/21 02:20:06;;;;;;;;;3.00;0.75;;;;;;;;5116225;27;45409;-62
2022/11/21 02:22:43;;;;;;;;;3.25;0.00;;;;;;;;5113055;27;47252;-62
2022/11/21 02:25:11;;;;;;;;;1.00;1.00;;;;;;;;5112906;27;45492;-62
2022/11/21 02:27:36;;;;;;;;;1.00;1.00;;;;;;;;5116235;27;45359;-62
2022/11/21 02:30:03;;;;;;;;;4.00;0.75;;;;;;;;5116552;27;45786;-62
2022/11/21 02:32:32;;;;;;;;;0.75;0.25;;;;;;;;5115658;27;46807;-62
2022/11/21 02:34:58;;;;;;;;;2.75;1.00;;;;;;;;5115999;27;45817;-62
2022/11/21 02:37:23;;;;;;;;;1.00;1.00;;;;;;;;5115965;27;45424;-63
2022/11/21 02:39:48;;;;;;;;;0.50;0.25;;;;;;;;5116089;27;45442;-62
2022/11/21 02:42:20;;;;;;;;;2.00;0.00;;;;;;;;5110873;27;46633;-62
2022/11/21 02:44:45;;;;;;;;;0.00;0.00;;;;;;;;5095424;27;45438;-62
2022/11/21 02:47:10;;;;;;;;;0.75;0.50;;;;;;;;5095476;27;45360;-63
2022/11/21 02:49:59;;;;;;;;;1.00;1.00;;;;;;;;5095333;27;45743;-62
2022/11/21 02:52:24;;;;;;;;;2.00;1.00;;;;;;;;5092732;27;46177;-62
2022/11/21 02:54:49;;;;;;;;;3.00;1.00;;;;;;;;5092545;27;45442;-62
2022/11/21 02:57:14;;;;;;;;;2.25;1.00;;;;;;;;5092962;27;45395;-62
2022/11/21 02:59:39;;;;;;;;;6.25;1.75;;;;;;;;5081948;27;45539;-62
2022/11/21 03:02:05;;;;;;;;;1.75;1.75;;;;;;;;5071860;28;45862;-63
2022/11/21 03:04:30;;;;;;;;;1.00;0.50;;;;;;;;5072208;28;45511;-63
2022/11/21 03:06:55;;;;;;;;;2.00;1.00;;;;;;;;5072279;28;45373;-62
2022/11/21 03:09:20;;;;;;;;;3.00;1.50;;;;;;;;5072475;28;45310;-62
2022/11/21 03:17:51;;;;;;;;;1.00;1.00;;;;;;;;5095396;27;45752;-62
2022/11/21 03:20:16;;;;;;;;;3.00;0.00;;;;;;;;5096441;27;45484;-63
2022/11/21 03:22:41;;;;;;;;;2.50;1.00;;;;;;;;5095346;27;46640;-63
2022/11/21 03:25:06;;;;;;;;;1.00;1.00;;;;;;;;5095628;27;45867;-62
2022/11/21 03:27:31;;;;;;;;;2.00;1.00;;;;;;;;5095865;27;45846;-62
2022/11/21 03:29:57;;;;;;;;;1.00;1.00;;;;;;;;5112306;27;45897;-63
2022/11/21 03:32:22;;;;;;;;;5.00;1.50;;;;;;;;5118646;27;45793;-63
2022/11/21 03:34:47;;;;;;;;;0.00;0.00;;;;;;;;5118791;27;45528;-63
2022/11/21 03:37:12;;;;;;;;;1.00;1.00;;;;;;;;5118885;27;45338;-63
2022/11/21 03:39:37;;;;;;;;;5.00;3.25;;;;;;;;5106550;27;45471;-62
2022/11/21 03:42:03;;;;;;;;;1.00;1.00;;;;;;;;5097423;27;46111;-62
2022/11/21 03:44:28;;;;;;;;;1.00;1.00;;;;;;;;5098078;27;45372;-62
2022/11/21 03:46:53;;;;;;;;;2.00;1.00;;;;;;;;5097993;27;45346;-63
2022/11/21 03:49:19;;;;;;;;;1.00;1.00;;;;;;;;5098173;27;45462;-62
2022/11/21 03:51:44;;;;;;;;;2.00;0.75;;;;;;;;5097656;27;45767;-63
2022/11/21 03:54:10;;;;;;;;;3.75;0.75;;;;;;;;5097559;27;45342;-63
2022/11/21 03:56:35;;;;;;;;;1.25;0.75;;;;;;;;5103854;27;45641;-63
2022/11/21 03:59:01;;;;;;;;;2.50;1.00;;;;;;;;5118561;27;45507;-62
2022/11/21 04:01:26;;;;;;;;;0.00;0.00;;;;;;;;5118439;27;46574;-62
2022/11/21 04:03:51;;;;;;;;;1.00;1.00;;;;;;;;5118208;27;45443;-62
2022/11/21 04:06:17;;;;;;;;;1.00;1.00;;;;;;;;5118186;27;45401;-63
2022/11/21 04:08:43;;;;;;;;;2.00;1.00;;;;;;;;5118532;27;45607;-62
2022/11/21 04:11:09;;;;;;;;;3.00;3.00;;;;;;;;5117772;27;47449;-62
2022/11/21 04:13:34;;;;;;;;;2.50;1.00;;;;;;;;5115034;27;45396;-62
2022/11/21 04:15:59;;;;;;;;;1.75;1.00;;;;;;;;5118190;27;45694;-62
2022/11/21 04:18:24;;;;;;;;;1.00;1.00;;;;;;;;5118098;27;45390;-62
2022/11/21 04:20:56;;;;;;;;;3.00;2.00;;;;;;;;5118061;27;46395;-62
2022/11/21 04:23:22;;;;;;;;;3.75;1.00;;;;;;;;5117919;27;45359;-62
2022/11/21 04:25:47;;;;;;;;;4.25;1.75;;;;;;;;5117392;27;45341;-62
2022/11/21 04:28:13;;;;;;;;;2.00;1.00;;;;;;;;5118058;27;45789;-62
2022/11/21 04:30:38;;;;;;;;;1.00;1.00;;;;;;;;5103948;27;47508;-63
2022/11/21 04:33:03;;;;;;;;;42.67;36.67;;;;;;;;5117751;27;45317;-62
2022/11/21 04:35:28;;;;;;;;;3.00;1.00;;;;;;;;5117853;27;45368;-62
2022/11/21 04:37:54;;;;;;;;;5.50;4.00;;;;;;;;5117900;27;45342;-63
2022/11/21 04:40:19;;;;;;;;;3.50;3.00;;;;;;;;5117468;27;46680;-63
2022/11/21 04:42:45;;;;;;;;;3.75;3.00;;;;;;;;5117443;27;45405;-62
2022/11/21 04:45:11;;;;;;;;;3.50;3.50;;;;;;;;5117905;27;45412;-62
2022/11/21 04:47:37;;;;;;;;;5.00;5.00;;;;;;;;5117909;27;45716;-62
2022/11/21 04:50:02;;;;;;;;;9.25;4.75;;;;;;;;5111702;27;46454;-62
2022/11/21 04:52:28;;;;;;;;;5.75;4.75;;;;;;;;5096928;27;45734;-62
2022/11/21 04:54:53;;;;;;;;;6.50;4.00;;;;;;;;5096965;27;45383;-62
2022/11/21 04:57:18;;;;;;;;;9.50;4.00;;;;;;;;5097045;27;45508;-62
2022/11/21 04:59:43;;;;;;;;;8.00;6.75;;;;;;;;5096661;27;46246;-62
2022/11/21 05:02:10;;;;;;;;;7.00;4.00;;;;;;;;5096590;27;45395;-62
2022/11/21 05:04:35;;;;;;;;;7.00;5.75;;;;;;;;5096993;27;45497;-62
2022/11/21 05:07:00;;;;;;;;;4.75;2.25;;;;;;;;5098069;27;45584;-62
2022/11/21 05:09:25;;;;;;;;;6.75;3.50;;;;;;;;5096707;27;47534;-62
2022/11/21 05:14:34;;;;;;;;;8.00;6.50;;;;;;;;5096742;27;45440;-62
2022/11/21 05:16:59;;;;;;;;;8.50;6.00;;;;;;;;5096618;27;45373;-62
2022/11/21 05:19:25;;;;;;;;;7.25;5.75;;;;;;;;5096253;27;46380;-63
2022/11/21 05:21:50;;;;;;;;;6.75;6.75;;;;;;;;5096481;27;45869;-62
2022/11/21 05:24:15;;;;;;;;;7.50;6.00;;;;;;;;5108861;27;45846;-63
2022/11/21 05:26:40;;;;;;;;;6.75;6.00;;;;;;;;5117363;27;45561;-63
2022/11/21 05:29:06;;;;;;;;;11.25;9.25;;;;;;;;5116623;27;46266;-62
2022/11/21 05:31:31;;;;;;;;;13.25;7.00;;;;;;;;5116748;27;45329;-63
2022/11/21 05:33:56;;;;;;;;;7.25;4.50;;;;;;;;5117005;27;45276;-62
2022/11/21 05:36:21;;;;;;;;;8.50;5.25;;;;;;;;5115758;27;45678;-63
2022/11/21 05:38:47;;;;;;;;;6.75;4.00;;;;;;;;5115684;27;45504;-63
2022/11/21 05:41:12;;;;;;;;;2.75;1.00;;;;;;;;5107652;27;45548;-63
2022/11/21 05:43:46;;;;;;;;;4.75;2.50;;;;;;;;5114642;27;46137;-63
2022/11/21 05:46:22;;;;;;;;;7.25;4.25;;;;;;;;5116750;27;45739;-63
2022/11/21 05:48:48;;;;;;;;;4.00;3.75;;;;;;;;5116623;27;46245;-62
2022/11/21 05:51:15;;;;;;;;;2.50;2.50;;;;;;;;5116580;27;45699;-62
2022/11/21 05:53:41;;;;;;;;;3.00;3.00;;;;;;;;5116619;27;45452;-63
2022/11/21 05:56:07;;;;;;;;;6.50;4.00;;;;;;;;5116663;27;45470;-63
2022/11/21 05:58:33;;;;;;;;;9.00;5.75;;;;;;;;5111605;27;45414;-63
2022/11/21 06:00:59;;;;;;;;;8.25;7.00;;;;;;;;5104660;27;45385;-63
2022/11/21 06:03:29;;;;;;;;;3.25;3.25;;;;;;;;5116165;27;45447;-62
2022/11/21 06:06:01;;;;;;;;;4.25;3.25;;;;;;;;5109863;27;45850;-63
2022/11/21 06:08:27;;;;;;;;;7.50;6.00;;;;;;;;5106530;27;45391;-63
2022/11/21 06:10:53;;;;;;;;;6.25;6.25;;;;;;;;5128528;27;45380;-63
2022/11/21 06:13:20;;;;;;;;;3.00;3.00;;;;;;;;5116008;27;45539;-63
2022/11/21 06:15:49;;;;;;;;;2.25;2.25;;;;;;;;5112265;27;45909;-63
2022/11/21 06:18:15;;;;;;;;;13.00;8.50;;;;;;;;5115239;27;45414;-63
2022/11/21 06:20:41;;;;;;;;;9.00;8.00;;;;;;;;5113756;27;45464;-63
2022/11/21 06:23:06;;;;;;;;;7.00;5.75;;;;;;;;5107681;27;45940;-63
2022/11/21 06:25:31;;;;;;;;;10.25;8.25;;;;;;;;5107525;27;45243;-63
2022/11/21 06:27:58;;;;;;;;;13.00;9.00;;;;;;;;5107991;27;46409;-63
2022/11/21 06:30:23;;;;;;;;;9.25;9.25;;;;;;;;5117118;27;45317;-63
2022/11/21 06:32:48;;;;;;;;;8.25;8.25;;;;;;;;5112039;27;45585;-63
2022/11/21 06:35:13;;;;;;;;;8.00;6.00;;;;;;;;5098340;27;46794;-63
2022/11/21 06:37:38;;;;;;;;;86.00;70.25;;;;;;;;5096143;27;46367;-63
2022/11/21 06:40:04;;;;;;;;;36.00;32.00;;;;;;;;5103646;27;45254;-63
2022/11/21 06:42:31;;;;;;;;;17.33;13.00;;;;;;;;5115346;27;45672;-63
2022/11/21 06:44:56;;;;;;;;;15.00;13.67;;;;;;;;5115952;27;45836;-63
2022/11/21 06:47:21;;;;;;;;;10.25;8.00;;;;;;;;5113076;27;46657;-63
2022/11/21 06:49:46;;;;;;;;;11.33;9.67;;;;;;;;5105969;27;45425;-63
2022/11/21 06:52:11;;;;;;;;;7.00;7.00;;;;;;;;5098899;27;45305;-63
2022/11/21 06:54:37;;;;;;;;;11.00;7.25;;;;;;;;5100176;27;45312;-63
2022/11/21 06:57:02;;;;;;;;;9.33;7.67;;;;;;;;5120434;27;47193;-63
2022/11/21 06:59:27;;;;;;;;;8.25;7.75;;;;;;;;5118015;27;45496;-61
2022/11/21 07:01:52;;;;;;;;;8.75;7.75;;;;;;;;5119292;27;45578;-63
2022/11/21 07:04:18;;;;;;;;;11.75;9.00;;;;;;;;5111074;27;45750;-63
2022/11/21 07:06:43;;;;;;;;;7.00;6.50;;;;;;;;5113517;27;45436;-62
2022/11/21 07:09:08;;;;;;;;;8.25;6.00;;;;;;;;5122209;27;45441;-63
2022/11/21 07:11:34;;;;;;;;;9.25;8.25;;;;;;;;5102407;27;45480;-63
2022/11/21 07:13:59;;;;;;;;;4.50;4.50;;;;;;;;5109402;27;45395;-63
2022/11/21 07:16:24;;;;;;;;;4.75;4.75;;;;;;;;5098288;27;48435;-63
2022/11/21 07:18:50;;;;;;;;;6.00;5.25;;;;;;;;5098314;27;45343;-63
2022/11/21 07:21:15;;;;;;;;;7.50;6.50;;;;;;;;5101067;27;45455;-63
2022/11/21 07:23:40;;;;;;;;;9.00;7.75;;;;;;;;5098595;27;45904;-63
2022/11/21 07:26:06;;;;;;;;;8.25;8.25;;;;;;;;5109740;27;45506;-63
2022/11/21 07:28:32;;;;;;;;;15.33;14.33;;;;;;;;5118513;27;45475;-63
2022/11/21 07:30:57;;;;;;;;;4.75;4.75;;;;;;;;5099016;27;45327;-62
2022/11/21 07:33:23;;;;;;;;;19.00;16.67;;;;;;;;5097917;27;45669;-62
2022/11/21 07:35:48;;;;;;;;;10.33;8.67;;;;;;;;5097964;27;46409;-62
2022/11/21 07:38:13;;;;;;;;;10.25;5.25;;;;;;;;5098675;27;45616;-62
2022/11/21 07:40:38;;;;;;;;;3.75;3.50;;;;;;;;5111214;27;45404;-62
2022/11/21 07:43:04;;;;;;;;;8.75;4.00;;;;;;;;5118801;27;45656;-62
2022/11/21 07:45:30;;;;;;;;;11.75;8.50;;;;;;;;5117641;27;45750;-62
2022/11/21 07:47:59;;;;;;;;;13.00;10.00;;;;;;;;5118186;27;45545;-63
2022/11/21 07:50:24;;;;;;;;;8.75;6.50;;;;;;;;5118308;27;45770;-62
2022/11/21 07:52:50;;;;;;;;;8.00;6.50;;;;;;;;5118691;27;45833;-62
2022/11/21 07:55:15;;;;;;;;;13.00;4.75;;;;;;;;5118485;27;46548;-65
2022/11/21 07:57:40;;;;;;;;;7.25;5.25;;;;;;;;5117751;27;45520;-62
2022/11/21 08:00:06;;;;;;;;;7.75;6.50;;;;;;;;5116934;27;45491;-62
2022/11/21 08:02:31;;;;;;;;;3.50;3.50;;;;;;;;5117905;27;45321;-63
2022/11/21 08:04:56;;;;;;;;;8.75;4.75;;;;;;;;5118231;27;46151;-63
2022/11/21 08:07:22;;;;;;;;;3.00;3.00;;;;;;;;5118124;27;45282;-63
2022/11/21 08:09:47;;;;;;;;;9.00;8.00;;;;;;;;5118291;27;45440;-63
2022/11/21 08:12:13;;;;;;;;;9.50;7.00;;;;;;;;5118493;27;45704;-63
2022/11/21 08:14:38;;;;;;;;;6.75;5.50;;;;;;;;5117656;27;46829;-63
2022/11/21 08:17:04;;;;;;;;;10.75;10.25;;;;;;;;5118342;27;45726;-63
2022/11/21 08:19:29;;;;;;;;;11.25;8.75;;;;;;;;5117188;27;45484;-63
2022/11/21 08:21:54;;;;;;;;;8.25;7.00;;;;;;;;5117568;27;45562;-63
2022/11/21 08:24:20;;;;;;;;;7.50;5.50;;;;;;;;5117366;27;45737;-63
2022/11/21 08:26:45;;;;;;;;;10.25;6.50;;;;;;;;5117281;27;45750;-63
2022/11/21 08:29:11;;;;;;;;;14.75;9.75;;;;;;;;5117377;27;45362;-64
2022/11/21 08:31:37;;;;;;;;;8.50;8.50;;;;;;;;5117549;27;45495;-64
2022/11/21 08:34:02;;;;;;;;;10.50;8.00;;;;;;;;5117539;27;46230;-64
2022/11/21 08:36:28;;;;;;;;;16.67;13.00;;;;;;;;5117614;27;45354;-64
2022/11/21 08:38:53;;;;;;;;;9.75;7.00;;;;;;;;5117793;27;45465;-64
2022/11/21 08:44:03;;;;;;;;;15.25;10.25;;;;;;;;5116797;27;45391;-64
2022/11/21 08:46:31;;;;;;;;;21.00;15.00;;;;;;;;5116948;27;45333;-64
2022/11/21 08:48:56;;;;;;;;;15.67;14.00;;;;;;;;5116901;27;45426;-63
2022/11/21 08:51:21;;;;;;;;;9.75;5.00;;;;;;;;5117298;27;45389;-63
2022/11/21 08:53:47;;;;;;;;;22.50;8.75;;;;;;;;5117397;27;46269;-63
2022/11/21 08:56:12;;;;;;;;;14.75;12.00;;;;;;;;5117382;27;45401;-63
2022/11/21 08:58:38;;;;;;;;;14.00;9.00;;;;;;;;5117489;27;45156;-63
2022/11/21 09:01:03;;;;;;;;;17.33;12.67;;;;;;;;5117155;27;45268;-63
2022/11/21 09:03:28;;;;;;;;;15.00;13.50;;;;;;;;5117396;27;45458;-63
2022/11/21 09:05:57;;;;;;;;;12.25;12.00;;;;;;;;5117184;27;45699;-63
2022/11/21 09:08:22;;;;;;;;;15.25;14.50;;;;;;;;5117317;27;45424;-64
2022/11/21 09:10:48;;;;;;;;;15.25;12.00;;;;;;;;5117272;27;45798;-63
2022/11/21 09:13:13;;;;;;;;;14.75;11.75;;;;;;;;5116759;27;45505;-63
2022/11/21 09:18:22;;;;;;;;;20.00;12.67;;;;;;;;5116832;27;45391;-63
2022/11/21 09:20:47;;;;;;;;;16.33;10.00;;;;;;;;5117367;27;45430;-63
2022/11/21 09:23:13;;;;;;;;;19.33;16.00;;;;;;;;5116524;27;46548;-63
2022/11/21 09:25:39;;;;;;;;;26.00;23.00;;;;;;;;5116779;27;45291;-64
2022/11/21 09:28:06;;;;;;;;;19.67;16.33;;;;;;;;5117063;27;45489;-63
2022/11/21 09:30:31;;;;;;;;;16.67;15.00;;;;;;;;5116811;27;45859;-63
2022/11/21 09:33:00;;;;;;;;;23.00;17.67;;;;;;;;5116487;27;46074;-63
2022/11/21 09:35:25;;;;;;;;;23.33;18.00;;;;;;;;5116452;27;45840;-63
2022/11/21 09:37:51;;;;;;;;;17.67;14.00;;;;;;;;5116653;27;45322;-64
2022/11/21 09:40:16;;;;;;;;;16.25;11.50;;;;;;;;5117046;27;45362;-63
2022/11/21 09:42:53;;;;;;;;;21.00;15.33;;;;;;;;5116586;27;45847;-63
2022/11/21 09:45:22;;;;;;;;;16.67;11.00;;;;;;;;5116398;27;45663;-63
2022/11/21 09:47:51;;;;;;;;;19.00;14.33;;;;;;;;5116812;27;45522;-63
2022/11/21 09:50:22;;;;;;;;;21.67;18.33;;;;;;;;5116378;27;45443;-63
2022/11/21 09:53:05;;;;;;;;;15.33;12.33;;;;;;;;5113658;27;46816;-63
2022/11/21 09:55:33;;;;;;;;;11.67;9.00;;;;;;;;5116175;27;45448;-63
2022/11/21 09:58:03;;;;;;;;;15.67;12.67;;;;;;;;5116467;27;45395;-63
2022/11/21 10:00:29;;;;;;;;;12.00;12.00;;;;;;;;5116503;27;45353;-63
2022/11/21 10:02:54;;;;;;;;;17.67;14.67;;;;;;;;5116076;27;46315;-63
2022/11/21 10:05:34;;;;;;;;;16.33;14.33;;;;;;;;5116160;27;45453;-63
2022/11/21 10:08:02;;;;;;;;;18.33;13.33;;;;;;;;5116196;27;45375;-63
2022/11/21 10:10:35;;;;;;;;;18.67;16.33;;;;;;;;5116292;27;45690;-63
2022/11/21 10:13:00;;;;;;;;;15.33;14.67;;;;;;;;5115768;27;47226;-63
2022/11/21 10:15:31;;;;;;;;;14.67;12.00;;;;;;;;5115842;27;45441;-63
2022/11/21 10:17:57;;;;;;;;;14.00;13.00;;;;;;;;5115954;27;45855;-63
2022/11/21 10:20:25;;;;;;;;;15.67;12.00;;;;;;;;5116499;27;45310;-63
2022/11/21 10:22:52;;;;;;;;;15.67;12.00;;;;;;;;5114952;27;47568;-63
2022/11/21 10:25:38;;;;;;;;;20.67;14.33;;;;;;;;5115677;27;45730;-63
2022/11/21 10:28:07;;;;;;;;;18.00;14.00;;;;;;;;5115596;27;45412;-63
2022/11/21 10:30:32;;;;;;;;;14.00;12.67;;;;;;;;5115965;27;45274;-63
2022/11/21 10:33:02;;;;;;;;;16.25;10.75;;;;;;;;5115523;27;46704;-63
2022/11/21 10:35:36;;;;;;;;;24.00;18.67;;;;;;;;5115829;27;45474;-63
2022/11/21 10:38:02;;;;;;;;;12.33;11.00;;;;;;;;5115832;27;45456;-63
2022/11/21 10:40:27;;;;;;;;;19.33;19.33;;;;;;;;5115903;27;45314;-63
2022/11/21 10:45:53;;;;;;;;;21.67;13.33;;;;;;;;5115792;27;45468;-63
2022/11/21 10:48:18;;;;;;;;;29.00;23.33;;;;;;;;5115683;27;45302;-63
2022/11/21 10:51:00;;;;;;;;;16.33;14.33;;;;;;;;5116056;27;45399;-63
2022/11/21 10:56:20;;;;;;;;;19.67;17.67;;;;;;;;5115482;27;45535;-63
2022/11/21 10:58:51;;;;;;;;;46.00;36.00;;;;;;;;5115749;27;45741;-63
2022/11/21 11:01:19;;;;;;;;;21.33;15.67;;;;;;;;5115472;27;45775;-63
2022/11/21 11:03:44;;;;;;;;;32.00;23.33;;;;;;;;5115411;27;46556;-63
2022/11/21 11:06:09;;;;;;;;;24.67;19.00;;;;;;;;5115466;27;45605;-63
2022/11/21 11:08:49;;;;;;;;;15.00;14.00;;;;;;;;5115640;27;45551;-63
2022/11/21 11:11:19;;;;;;;;;20.67;15.33;;;;;;;;5115644;27;45627;-63
2022/11/21 11:14:04;;;;;;;;;16.00;12.75;;;;;;;;5115208;27;45708;-63
2022/11/21 11:16:30;;;;;;;;;38.00;29.33;;;;;;;;5115167;27;45453;-63
2022/11/21 11:19:07;;;;;;;;;21.50;14.50;;;;;;;;5115253;27;45323;-63
2022/11/21 11:21:39;;;;;;;;;21.33;19.00;;;;;;;;5115106;27;45446;-63
2022/11/21 11:24:25;;;;;;;;;19.00;13.67;;;;;;;;5115261;27;46472;-63
2022/11/21 11:26:55;;;;;;;;;21.50;13.00;;;;;;;;5114997;27;45369;-63
2022/11/21 11:29:23;;;;;;;;;15.33;14.67;;;;;;;;5115177;27;45385;-63
2022/11/21 11:31:51;;;;;;;;;17.33;14.00;;;;;;;;5115121;27;45412;-63
2022/11/21 11:34:16;;;;;;;;;18.00;14.33;;;;;;;;5116894;27;46222;-63
2022/11/21 11:36:44;;;;;;;;;12.75;10.75;;;;;;;;5118518;27;45627;-63
2022/11/21 11:39:17;;;;;;;;;20.33;13.00;;;;;;;;5118716;27;45443;-63
2022/11/21 11:47:48;;;;;;;;;12.50;10.50;;;;;;;;5075005;28;45817;-63
2022/11/21 11:50:18;;;;;;;;;15.00;12.00;;;;;;;;5075215;28;45649;-63
2022/11/21 11:52:58;;;;;;;;;20.67;13.00;;;;;;;;5075038;28;45805;-63
2022/11/21 11:55:23;;;;;;;;;14.50;13.00;;;;;;;;5074777;28;46139;-63
2022/11/21 11:57:51;;;;;;;;;27.00;17.33;;;;;;;;5074757;28;45575;-63
2022/11/21 12:00:22;;;;;;;;;20.67;17.67;;;;;;;;5075239;28;45787;-63
2022/11/21 12:02:54;;;;;;;;;17.67;13.33;;;;;;;;5074701;28;45628;-63
2022/11/21 12:05:26;;;;;;;;;16.50;11.75;;;;;;;;5074755;28;45473;-63
2022/11/21 12:07:57;;;;;;;;;10.75;9.25;;;;;;;;5074825;28;45749;-63
2022/11/21 12:10:25;;;;;;;;;13.75;9.75;;;;;;;;5074821;28;45471;-63
2022/11/21 12:13:10;;;;;;;;;14.50;9.25;;;;;;;;5075180;28;45502;-63
2022/11/21 12:15:49;;;;;;;;;14.00;10.75;;;;;;;;5074426;28;46242;-63
2022/11/21 12:18:14;;;;;;;;;16.00;9.50;;;;;;;;5074289;28;45526;-63
2022/11/21 12:20:57;;;;;;;;;9.50;9.25;;;;;;;;5074753;28;45453;-63
2022/11/21 12:23:39;;;;;;;;;16.50;8.75;;;;;;;;5118301;27;45348;-63
2022/11/21 12:26:19;;;;;;;;;13.75;10.25;;;;;;;;5117821;27;45377;-63
2022/11/21 12:29:06;;;;;;;;;16.50;10.25;;;;;;;;5117744;27;45402;-63
2022/11/21 12:31:44;;;;;;;;;15.75;9.50;;;;;;;;5117742;27;45622;-63
2022/11/21 12:34:15;;;;;;;;;11.00;8.75;;;;;;;;5117918;27;45389;-63
2022/11/21 12:37:18;;;;;;;;;13.00;9.50;;;;;;;;5117760;27;46192;-63
2022/11/21 12:39:53;;;;;;;;;10.50;7.00;;;;;;;;5074246;28;45828;-63
2022/11/21 12:42:49;;;;;;;;;14.00;10.75;;;;;;;;5074361;28;45750;-62
2022/11/21 12:45:26;;;;;;;;;11.25;10.75;;;;;;;;5073698;28;45502;-62
2022/11/21 12:56:56;;;;;;;;;12.75;8.00;;;;;;;;5069123;28;45360;-62
2022/11/21 12:59:23;;;;;;;;;11.25;6.75;;;;;;;;5073864;28;45556;-62
2022/11/21 13:02:00;;;;;;;;;9.50;7.25;;;;;;;;5073553;28;45471;-62
2022/11/21 13:04:32;;;;;;;;;10.75;7.50;;;;;;;;5074219;28;45828;-63
2022/11/21 13:06:58;;;;;;;;;23.33;16.00;;;;;;;;5074256;28;45561;-62
2022/11/21 13:09:23;;;;;;;;;17.75;8.00;;;;;;;;5074744;27;46226;-62
2022/11/21 13:11:57;;;;;;;;;6.75;6.50;;;;;;;;5117166;27;46057;-63
2022/11/21 13:14:41;;;;;;;;;8.75;7.50;;;;;;;;5117106;27;45544;-63
2022/11/21 13:17:18;;;;;;;;;7.75;7.25;;;;;;;;5117548;27;45359;-63
2022/11/21 13:19:43;;;;;;;;;8.75;7.25;;;;;;;;5116690;27;45751;-62
2022/11/21 13:22:27;;;;;;;;;8.50;7.00;;;;;;;;5116900;27;45755;-62
2022/11/21 13:24:55;;;;;;;;;7.75;6.00;;;;;;;;5117004;27;45391;-63
2022/11/21 13:27:37;;;;;;;;;8.50;5.50;;;;;;;;5117154;27;45901;-62
2022/11/21 13:30:05;;;;;;;;;11.25;7.50;;;;;;;;5116838;27;47091;-62
2022/11/21 13:32:43;;;;;;;;;14.25;8.75;;;;;;;;5116538;27;45672;-62
2022/11/21 13:35:18;;;;;;;;;9.75;5.50;;;;;;;;5116918;27;45353;-62
2022/11/21 13:38:03;;;;;;;;;8.75;5.50;;;;;;;;5116918;27;45556;-62
2022/11/21 13:40:31;;;;;;;;;10.25;6.00;;;;;;;;5116755;27;46378;-63
2022/11/21 13:43:11;;;;;;;;;7.75;5.25;;;;;;;;5116467;27;45873;-62
2022/11/21 13:45:39;;;;;;;;;11.67;9.33;;;;;;;;5116619;27;45415;-63
2022/11/21 13:48:14;;;;;;;;;11.00;6.50;;;;;;;;5116781;27;45493;-63
2022/11/21 13:50:55;;;;;;;;;8.25;4.50;;;;;;;;5116582;27;45459;-63
2022/11/21 13:53:29;;;;;;;;;7.75;5.00;;;;;;;;5116619;27;45763;-62
2022/11/21 13:55:57;;;;;;;;;10.50;5.75;;;;;;;;5116311;27;45757;-63
2022/11/21 13:58:32;;;;;;;;;7.75;5.00;;;;;;;;5115587;27;45378;-62
2022/11/21 14:00:57;;;;;;;;;3.50;3.00;;;;;;;;5116163;27;46615;-62
2022/11/21 14:03:41;;;;;;;;;8.50;4.75;;;;;;;;5116322;27;45380;-62
2022/11/21 14:06:09;;;;;;;;;6.25;4.75;;;;;;;;5116130;27;45698;-63
2022/11/21 14:08:35;;;;;;;;;5.00;3.50;;;;;;;;5116636;27;45393;-62
2022/11/21 14:11:17;;;;;;;;;15.25;7.00;;;;;;;;5115973;27;45440;-63
2022/11/21 14:13:45;;;;;;;;;8.50;6.00;;;;;;;;5116266;27;45432;-62
2022/11/21 14:16:23;;;;;;;;;6.75;4.00;;;;;;;;5116219;27;45780;-62
2022/11/21 14:18:48;;;;;;;;;8.00;4.25;;;;;;;;5116111;27;45325;-63
2022/11/21 14:21:25;;;;;;;;;8.00;6.75;;;;;;;;5116009;27;45693;-63
2022/11/21 14:23:52;;;;;;;;;7.75;5.25;;;;;;;;5116089;27;45472;-62
2022/11/21 14:26:20;;;;;;;;;4.00;4.00;;;;;;;;5116079;27;45533;-62
2022/11/21 14:28:45;;;;;;;;;8.50;3.25;;;;;;;;5116100;27;45493;-62
2022/11/21 14:31:11;;;;;;;;;8.50;5.00;;;;;;;;5115924;27;45673;-62
2022/11/21 14:33:36;;;;;;;;;6.00;3.00;;;;;;;;5115831;27;45400;-62
2022/11/21 14:36:05;;;;;;;;;7.25;6.00;;;;;;;;5116027;27;45759;-62
2022/11/21 14:38:33;;;;;;;;;11.00;5.00;;;;;;;;5116063;27;45793;-63
2022/11/21 14:41:30;;;;;;;;;4.50;3.00;;;;;;;;5115747;27;45429;-62
2022/11/21 14:43:56;;;;;;;;;5.75;4.00;;;;;;;;5072316;28;45285;-62
2022/11/21 14:46:21;;;;;;;;;6.25;5.50;;;;;;;;5072687;28;45662;-62
2022/11/21 14:48:47;;;;;;;;;3.00;3.00;;;;;;;;5072631;28;45740;-62
2022/11/21 14:51:16;;;;;;;;;10.00;5.00;;;;;;;;5072515;28;45640;-62
2022/11/21 14:53:42;;;;;;;;;6.50;3.75;;;;;;;;5072393;28;45516;-63
2022/11/21 14:56:19;;;;;;;;;4.00;1.00;;;;;;;;5072521;28;45413;-62
2022/11/21 14:58:45;;;;;;;;;5.00;2.00;;;;;;;;5072590;28;45464;-62
2022/11/21 15:01:20;;;;;;;;;7.00;4.00;;;;;;;;5071930;28;46455;-62
2022/11/21 15:03:53;;;;;;;;;6.50;4.00;;;;;;;;5071611;28;45540;-62
2022/11/21 15:06:18;;;;;;;;;10.00;6.00;;;;;;;;5072211;28;45384;-62
2022/11/21 15:08:43;;;;;;;;;6.00;4.50;;;;;;;;5073087;28;45411;-63
2022/11/21 15:11:09;;;;;;;;;10.25;6.00;;;;;;;;5075745;28;45678;-63
2022/11/21 15:13:35;;;;;;;;;4.25;3.50;;;;;;;;5075668;28;45706;-63
2022/11/21 15:16:01;;;;;;;;;4.00;1.75;;;;;;;;5075945;28;45481;-63